Latest Weather Observations for Mount Hotham Airport

IDV60801

Issued at 3:02 pm EST Tuesday 22 August 2017 (issued every 30 minutes, with the page automatically refreshed every 10 minutes)

About weather observations | Map of weather stations | Latest weather observations for VIC | Other Formats
Station Details ID: 083055 Name: MOUNT HOTHAM AIRPORT Lat: -37.05 Lon: 147.33 Height: 1295.4 m
Data from the previous 72 hours. | See also: Recent months at Mount Hotham Airport
Date/Time
EST
Temp
°C
App
Temp
°C
Dew
Point
°C
Rel
Hum
%
Delta-T
°C
Wind Press
QNH
hPa
Press
MSL
hPa
Rain since
9am
mm
Dir  Spd
km/h
Gust
km/h
Spd
kts
Gust
kts
22/03:00pm 8.5 3.1 -1.0 51 4.0 W 17 22 9 12 1017.7 1021.0 0.0
22/02:30pm 9.0 3.3 -1.1 49 4.2 WNW 19 26 10 14 1017.4 - 0.0
22/02:00pm 9.6 4.2 -1.4 46 4.6 NW 17 22 9 12 1017.4 - 0.0
22/01:30pm 9.5 5.2 -1.8 45 4.7 NW 11 26 6 14 1017.4 - 0.0
22/01:00pm 9.8 4.5 -0.7 48 4.5 NW 17 24 9 13 1017.6 - 0.0
22/12:30pm 9.0 4.2 -2.3 45 4.6 WNW 13 20 7 11 1017.8 - 0.0
22/12:00pm 8.8 4.2 -1.3 49 4.2 NW 13 20 7 11 1018.0 1021.3 0.0
22/11:30am 8.0 3.3 -1.8 50 4.0 NNW 13 20 7 11 1018.2 - 0.0
22/11:00am 7.9 3.6 -1.3 52 3.8 NNW 11 17 6 9 1018.4 - 0.0
22/10:30am 7.6 3.7 -1.4 53 3.7 NW 9 15 5 8 1018.5 - 0.0
22/10:00am 6.3 1.5 -2.6 53 3.5 W 13 20 7 11 1018.4 - 0.0
22/09:30am 5.8 0.2 -2.5 55 3.3 WNW 17 26 9 14 1018.5 - 0.0
22/09:00am 5.8 1.5 -1.8 58 3.0 WNW 11 20 6 11 1018.2 1021.5 0.0
22/08:30am 4.6 1.1 -2.5 60 2.8 WNW 6 15 3 8 1017.8 - 0.0
22/08:00am 2.9 -0.8 -2.6 67 2.1 N 7 7 4 4 1017.6 - 0.0
22/07:30am 0.8 -2.8 -3.3 74 1.5 N 6 9 3 5 1017.2 - 0.0
22/07:00am -0.4 -4.3 -4.3 75 1.4 N 7 11 4 6 1017.0 - 0.0
22/06:30am -0.8 -4.6 -3.8 80 1.0 NNW 7 11 4 6 1016.7 - 0.0
22/06:00am 0.1 -3.5 -3.6 76 1.3 NNW 6 7 3 4 1016.4 1019.7 0.0
22/05:44am -0.4 -4.6 -3.9 77 1.2 NNW 9 13 5 7 1016.3 - 0.0
22/05:43am -0.4 -4.6 -3.9 77 1.2 NNW 9 13 5 7 1016.3 - 0.0
22/05:30am -0.3 -4.0 -3.3 80 1.1 N 7 11 4 6 1016.2 - 0.0
22/05:25am -1.1 -4.7 -3.8 82 0.9 N 6 9 3 5 1016.3 - 0.0
22/05:24am -1.1 -4.7 -3.8 82 0.9 N 6 9 3 5 1016.3 - 0.0
22/05:00am -0.9 -4.6 -4.4 77 1.2 N 6 7 3 4 1016.2 - 0.0
22/04:30am -0.5 -4.1 -3.7 79 1.1 N 6 9 3 5 1016.0 - 0.0
22/04:00am -2.1 -5.8 -4.4 84 0.7 N 6 7 3 4 1015.6 - 0.0
22/03:30am -1.3 -4.5 -3.8 83 0.8 N 4 7 2 4 1015.4 - 0.0
22/03:00am -2.1 -5.4 -4.0 87 0.6 ESE 4 4 2 2 1015.3 1018.5 0.0
22/02:30am -1.8 -4.6 -3.4 89 0.5 N 2 6 1 3 1015.3 - 0.0
22/02:20am -1.2 -3.9 -2.6 90 0.5 NNE 2 6 1 3 1015.4 - 0.0
22/02:19am -1.2 -3.9 -2.6 90 0.5 NNE 2 6 1 3 1015.4 - 0.0
22/02:02am -0.9 -3.5 -1.6 95 0.2 SSE 2 2 1 1 1015.5 - 0.0
22/02:01am -0.9 -3.5 -1.6 95 0.2 SSE 2 2 1 1 1015.5 - 0.0
22/02:00am -0.9 -3.5 -1.5 96 0.2 SSE 2 2 1 1 1015.5 - 0.0
22/01:30am -2.1 -5.6 -2.9 94 0.2 WNW 6 7 3 4 1015.6 - 0.0
22/01:00am -2.2 -5.0 -3.6 90 0.4 SW 2 4 1 2 1015.7 - 0.0
22/12:30am -1.7 -4.5 -3.0 91 0.4 NW 2 6 1 3 1015.6 - 0.0
22/12:18am -2.0 -4.8 -3.6 89 0.5 N 2 6 1 3 1015.7 - 0.0
22/12:17am -2.0 -4.8 -3.6 89 0.5 N 2 6 1 3 1015.7 - 0.0
22/12:08am -1.5 -4.3 -3.1 89 0.5 NNW 2 4 1 2 1015.7 - 0.0
22/12:07am -1.5 -4.3 -3.1 89 0.5 NNW 2 4 1 2 1015.7 - 0.0
22/12:00am -1.4 -4.2 -3.1 88 0.5 NW 2 2 1 1 1015.9 1019.1 0.0
 
Date/Time
EST
Temp
°C
App
Temp
°C
Dew
Point
°C
Rel
Hum
%
Delta-T
°C
Wind Press
QNH
hPa
Press
MSL
hPa
Rain since
9am
mm
Dir  Spd
km/h
Gust
km/h
Spd
kts
Gust
kts
21/11:30pm -1.1 -4.7 -3.3 85 0.7 N 6 7 3 4 1016.0 - 0.0
21/11:00pm 0.6 -2.8 -1.8 84 0.9 NNW 6 7 3 4 1016.1 - 0.0
21/10:30pm 0.8 -3.1 -1.8 83 1.0 NW 9 13 5 7 1016.0 - 0.0
21/10:01pm 0.5 -3.5 -1.9 84 0.9 WNW 9 13 5 7 1016.0 - 0.0
21/10:00pm 0.6 -3.3 -1.8 84 0.9 WNW 9 13 5 7 1015.9 - 0.0
21/09:49pm 0.2 -3.4 -2.0 85 0.8 NW 7 11 4 6 1016.0 - 0.0
21/09:48pm 0.2 -3.4 -2.0 85 0.8 NW 7 11 4 6 1016.0 - 0.0
21/09:45pm 0.2 -3.4 -2.0 85 0.8 NW 7 11 4 6 1015.9 - 0.0
21/09:44pm 0.2 -3.4 -2.0 85 0.8 NW 7 11 4 6 1015.9 - 0.0
21/09:32pm 0.3 -4.1 -2.1 84 0.9 NW 11 15 6 8 1015.7 - 0.0
21/09:31pm 0.3 -4.1 -2.1 84 0.9 NW 11 15 6 8 1015.7 - 0.0
21/09:30pm 0.4 -3.9 -2.0 84 0.9 NW 11 15 6 8 1015.9 - 0.0
21/09:13pm 0.4 -3.5 -1.8 85 0.9 WNW 9 13 5 7 1015.9 - 0.0
21/09:12pm 0.4 -3.5 -1.8 85 0.9 WNW 9 13 5 7 1015.9 - 0.0
21/09:00pm 0.2 -3.4 -2.2 84 0.9 WNW 7 11 4 6 1015.7 1019.0 0.0
21/08:59pm 0.2 -3.4 -2.2 84 0.9 WNW 7 11 4 6 1015.7 - 0.0
21/08:30pm 0.7 -4.4 -2.0 82 1.1 NW 15 20 8 11 1015.4 - 0.0
21/08:00pm 0.8 -3.6 -2.2 80 1.2 NW 11 19 6 10 1015.1 - 0.0
21/07:30pm 1.1 -4.4 -2.3 78 1.3 NW 17 22 9 12 1014.6 - 0.0
21/07:00pm 1.0 -4.2 -2.6 77 1.4 NW 15 20 8 11 1014.4 - 0.0
21/06:30pm 0.9 -2.8 -3.0 75 1.5 NW 7 13 4 7 1014.3 - 0.0
21/06:29pm 0.9 -2.8 -3.0 75 1.5 NW 7 13 4 7 1014.3 - 0.0
21/06:28pm 0.9 -2.8 -3.0 75 1.5 NW 7 13 4 7 1014.3 - 0.0
21/06:19pm 1.0 -3.1 -3.1 74 1.6 NW 9 15 5 8 1014.2 - 0.0
21/06:18pm 1.0 -3.1 -3.1 74 1.6 NW 9 15 5 8 1014.2 - 0.0
21/06:00pm 1.0 -3.9 -3.5 72 1.7 NW 13 19 7 10 1014.0 1017.2 0.0
21/05:30pm 1.1 -3.8 -3.4 72 1.7 NW 13 22 7 12 1013.8 - 0.0
21/05:00pm 1.4 -3.1 -3.3 71 1.8 NW 11 20 6 11 1013.5 - 0.0
21/04:30pm 1.7 -4.3 -3.2 70 1.9 NW 19 28 10 15 1013.4 - 0.0
21/04:00pm 2.1 -3.5 -3.2 68 2.0 NW 17 30 9 16 1013.1 - 0.0
21/03:30pm 2.2 -4.4 -3.3 67 2.0 WNW 22 41 12 22 1012.9 - 0.0
21/03:00pm 2.3 -4.6 -2.4 71 1.8 WNW 24 35 13 19 1012.8 1015.9 0.0
21/02:30pm 1.9 -6.6 -3.6 67 2.1 NNW 32 37 17 20 1012.9 - 0.0
21/02:00pm 1.9 -3.4 -3.6 67 2.1 NNW 15 26 8 14 1013.0 - 0.0
21/01:30pm 1.7 -5.4 -4.0 66 2.2 NNW 24 35 13 19 1013.0 - 0.0
21/01:00pm 1.2 -6.2 -3.8 69 1.9 NW 26 33 14 18 1013.5 - 0.0
21/12:30pm 1.1 -5.8 -3.0 74 1.6 NNW 24 35 13 19 1013.8 - 0.0
21/12:00pm 0.9 -4.0 -0.4 91 0.5 NW 15 19 8 10 1014.0 1017.2 0.0
21/11:59am 0.9 -4.0 -0.4 91 0.5 NW 15 19 8 10 1014.2 - 0.0
21/11:58am 0.9 -4.0 -0.4 91 0.5 NW 15 19 8 10 1014.2 - 0.0
21/11:41am 0.3 -4.7 -1.1 90 0.6 NNW 15 20 8 11 1014.4 - 0.0
21/11:40am 0.3 -4.7 -1.1 90 0.6 NNW 15 20 8 11 1014.4 - 0.0
21/11:30am 0.6 -4.0 -1.0 89 0.7 NNW 13 19 7 10 1014.5 - 0.0
21/11:29am 0.6 -4.0 -1.0 89 0.7 NNW 13 19 7 10 1014.5 - 0.0
21/11:15am 0.3 -3.6 -1.3 89 0.6 NNW 9 19 5 10 1014.6 - 0.0
21/11:14am 0.3 -3.6 -1.3 89 0.6 NNW 9 19 5 10 1014.6 - 0.0
21/11:00am 0.4 -3.5 -1.5 87 0.7 N 9 13 5 7 1014.7 - 0.0
21/10:34am 0.0 -3.3 -1.6 89 0.6 N 6 11 3 6 1014.9 - 0.0
21/10:33am 0.0 -3.3 -1.6 89 0.6 N 6 11 3 6 1014.9 - 0.0
21/10:30am -0.1 -3.1 -1.7 89 0.6 N 4 11 2 6 1014.9 - 0.0
21/10:00am -0.4 -4.1 -2.8 84 0.9 NNW 7 11 4 6 1015.4 - 0.0
21/09:57am -0.2 -3.9 -2.7 83 0.9 NNW 7 11 4 6 1015.4 - 0.0
21/09:56am -0.2 -3.9 -2.7 83 0.9 NW 7 11 4 6 1015.4 - 0.0
21/09:30am -0.3 -4.0 -2.8 83 0.9 NNW 7 11 4 6 1015.4 - 0.0
21/09:00am -0.5 -5.4 -3.7 79 1.1 NNW 13 20 7 11 1015.5 1018.7 0.0
21/08:30am -0.3 -7.0 -4.2 75 1.4 NNW 22 35 12 19 1015.4 - 0.0
21/08:00am 0.3 -5.5 -5.1 67 1.9 NNW 17 32 9 17 1015.3 - 0.0
21/07:30am 0.9 -3.9 -6.2 59 2.5 NW 11 26 6 14 1015.1 - 0.0
21/07:00am 0.8 -3.8 -7.4 54 2.7 NW 9 24 5 13 1014.7 - 0.0
21/06:30am 0.5 -4.1 -8.2 52 2.8 NNW 9 13 5 7 1014.6 - 0.0
21/06:00am 0.8 -3.9 -9.5 46 3.3 NNW 9 15 5 8 1014.7 1017.9 0.0
21/05:30am 0.2 -4.2 -10.0 46 3.1 N 7 11 4 6 1014.6 - 0.0
21/05:00am 0.4 -4.0 -10.7 43 3.4 NNW 7 13 4 7 1014.6 - 0.0
21/04:30am -0.3 -4.7 -10.5 46 3.0 NNW 7 13 4 7 1014.8 - 0.0
21/04:00am -0.1 -4.6 -11.7 41 3.4 NNW 7 9 4 5 1014.9 - 0.0
21/03:35am -1.0 -4.7 -8.6 56 2.3 NNW 4 7 2 4 1015.2 - 0.0
21/03:34am -1.0 -4.7 -8.6 56 2.3 NNW 4 7 2 4 1015.2 - 0.0
21/03:30am -0.6 -4.4 -9.5 51 2.7 NNW 4 7 2 4 1015.3 - 0.0
21/03:16am -1.6 -5.2 -7.1 66 1.7 NW 4 6 2 3 1015.5 - 0.0
21/03:15am -1.6 -5.2 -7.1 66 1.7 NW 4 6 2 3 1015.5 - 0.0
21/03:00am -0.7 -4.4 -8.6 55 2.4 N 4 6 2 3 1015.4 1018.6 0.0
21/02:30am 0.6 -4.6 -10.8 42 3.5 N 11 15 6 8 1015.6 - 0.0
21/02:00am 0.4 -5.0 -8.3 52 2.8 N 13 15 7 8 1015.9 - 0.0
21/01:30am 0.4 -4.9 -7.8 54 2.7 NNW 13 20 7 11 1016.3 - 0.0
21/01:00am 0.3 -5.4 -7.7 55 2.6 NNW 15 22 8 12 1016.4 - 0.0
21/12:30am 0.2 -5.5 -7.8 55 2.6 NNW 15 20 8 11 1016.5 - 0.0
21/12:00am 0.1 -5.2 -7.6 56 2.5 NNW 13 17 7 9 1016.8 1020.0 0.0
 
Date/Time
EST
Temp
°C
App
Temp
°C
Dew
Point
°C
Rel
Hum
%
Delta-T
°C
Wind Press
QNH
hPa
Press
MSL
hPa
Rain since
9am
mm
Dir  Spd
km/h
Gust
km/h
Spd
kts
Gust
kts
20/11:30pm -0.1 -4.1 -7.4 58 2.4 NNW 6 9 3 5 1017.0 - 0.0
20/11:00pm -0.1 -4.4 -5.3 68 1.8 NNW 9 13 5 7 1017.1 - 0.0
20/10:48pm 0.1 -4.6 -5.3 67 1.9 NNW 11 15 6 8 1017.3 - 0.0
20/10:47pm 0.1 -4.6 -5.3 67 1.9 NNW 11 15 6 8 1017.3 - 0.0
20/10:32pm -0.2 -4.8 -4.4 73 1.5 NNW 11 13 6 7 1017.7 - 0.0
20/10:31pm -0.2 -4.8 -4.4 73 1.5 NNW 11 13 6 7 1017.7 - 0.0
20/10:30pm -0.3 -4.9 -4.4 74 1.4 NNW 11 13 6 7 1017.8 - 0.0
20/10:00pm -0.2 -4.5 -5.2 69 1.7 N 9 15 5 8 1017.8 - 0.0
20/09:30pm -2.8 -5.8 -5.0 85 0.6 W 2 6 1 3 1018.1 - 0.0
20/09:00pm -2.6 -6.4 -5.4 81 0.8 NNW 6 7 3 4 1018.1 1021.4 0.0
20/08:50pm -1.4 -5.3 -4.4 80 1.0 NNW 7 7 4 4 1017.9 - 0.0
20/08:49pm -1.4 -5.3 -4.4 80 1.0 NNW 7 7 4 4 1017.9 - 0.0
20/08:34pm -0.9 -4.8 -4.4 77 1.2 N 7 11 4 6 1018.0 - 0.0
20/08:33pm -0.9 -4.8 -4.4 77 1.2 N 7 11 4 6 1018.0 - 0.0
20/08:30pm -0.8 -4.7 -4.5 76 1.3 N 7 11 4 6 1018.1 - 0.0
20/08:00pm -1.1 -4.0 -4.4 78 1.1 NW 2 4 1 2 1018.2 - 0.0
20/07:46pm -0.8 -4.1 -4.3 77 1.2 NNW 4 6 2 3 1018.4 - 0.0
20/07:45pm -0.8 -4.1 -4.3 77 1.2 NNW 4 6 2 3 1018.4 - 0.0
20/07:30pm -0.4 -4.3 -4.6 73 1.5 WNW 7 9 4 5 1018.5 - 0.0
20/07:27pm -0.3 -4.2 -4.7 72 1.5 WNW 7 9 4 5 1018.5 - 0.0
20/07:26pm -0.3 -4.2 -4.7 72 1.5 WNW 7 9 4 5 1018.5 - 0.0
20/07:00pm -0.7 -4.4 -2.6 87 0.7 WNW 7 15 4 8 1018.6 - 0.0
20/06:56pm -1.3 -4.8 -3.0 88 0.6 WNW 6 9 3 5 1018.6 - 0.0
20/06:55pm -1.3 -4.8 -3.0 88 0.6 WNW 6 9 3 5 1018.6 - 0.0
20/06:41pm -1.1 -4.8 -3.0 87 0.6 NW 7 11 4 6 1018.5 - 0.0
20/06:40pm -1.1 -4.8 -3.0 87 0.6 NW 7 11 4 6 1018.5 - 0.0
20/06:30pm -0.5 -4.0 -2.7 85 0.8 NNW 6 7 3 4 1018.2 - 0.0
20/06:00pm 1.1 -2.9 -2.0 80 1.2 ENE 9 11 5 6 1018.1 1021.4 0.0
20/05:30pm 2.3 -1.1 -1.7 75 1.5 NE 6 11 3 6 1018.2 - 0.0
20/05:00pm 2.6 -1.0 -1.9 72 1.7 ENE 7 9 4 5 1018.5 - 0.0
20/04:30pm 4.1 0.1 -1.9 65 2.4 E 9 13 5 7 1018.4 - 0.0
20/04:00pm 4.7 0.7 -1.9 62 2.6 E 9 15 5 8 1018.7 - 0.0
20/03:30pm 4.5 0.5 -2.6 60 2.7 E 9 15 5 8 1019.0 - 0.0
20/03:00pm 5.2 1.3 -1.7 61 2.7 ESE 9 15 5 8 1019.1 1022.5 0.0
20/02:30pm 4.9 0.6 -1.5 63 2.6 E 11 17 6 9 1019.4 - 0.0
20/02:00pm 4.5 0.5 -2.4 61 2.7 E 9 17 5 9 1019.6 - 0.0
20/01:30pm 4.8 1.1 -2.5 59 2.8 ENE 7 17 4 9 1020.1 - 0.0
20/01:00pm 4.9 1.5 -2.0 61 2.7 E 6 15 3 8 1020.5 - 0.0
20/12:30pm 3.2 -0.8 -2.5 66 2.2 ESE 9 17 5 9 1021.0 - 0.0
20/12:00pm 2.8 -0.7 -2.9 66 2.1 SE 6 11 3 6 1021.8 1025.2 0.0
20/11:30am 1.9 -1.7 -3.4 68 2.1 ESE 6 11 3 6 1022.4 - 0.0
20/11:00am 1.9 -1.6 -3.2 69 1.9 ESE 6 9 3 5 1022.9 - 0.0
20/10:30am -0.1 -4.3 -3.6 77 1.3 S 9 15 5 8 1023.2 - 0.0
20/10:00am -0.7 -5.2 -3.4 82 0.9 SSW 11 17 6 9 1023.2 - 0.0
20/09:30am -1.2 -5.0 -3.9 82 0.9 SSW 7 15 4 8 1023.0 - 0.0
20/09:00am -1.3 -4.4 -2.4 92 0.3 S 4 7 2 4 1023.0 1026.5 0.0
20/08:30am -2.9 -6.5 -3.6 95 0.1 SSW 6 13 3 7 1023.3 - 0.0
20/08:00am -3.7 -6.6 -4.1 97 0.0 SW 2 6 1 3 1023.2 - 0.0
20/07:30am -5.2 -9.0 -5.6 97 -0.1 W 6 7 3 4 1023.1 - 0.0
20/07:29am -5.2 -9.0 -5.6 97 -0.1 W 6 7 3 4 1023.1 - 0.0
20/07:17am -6.1 -10.0 -6.6 96 -0.1 W 6 9 3 5 1023.0 - 0.0
20/07:16am -6.1 -10.0 -6.6 96 -0.1 W 6 9 3 5 1023.0 - 0.0
20/07:00am -6.7 -9.9 -7.4 95 0.0 NW 2 6 1 3 1023.0 - 0.0
20/06:47am -6.4 -10.0 -7.1 95 0.0 SSW 4 6 2 3 1023.0 - 0.0
20/06:46am -6.4 -10.0 -7.1 95 0.0 SSW 4 6 2 3 1023.0 - 0.0
20/06:30am -6.7 -10.3 -7.5 94 0.0 WSW 4 6 2 3 1023.0 - 0.0
20/06:28am -6.8 -10.4 -7.6 94 0.0 SW 4 7 2 4 1023.0 - 0.0
20/06:27am -6.8 -10.4 -7.6 94 0.0 SW 4 7 2 4 1023.0 - 0.0
20/06:00am -5.5 -9.0 -6.2 95 0.0 W 4 7 2 4 1022.3 1025.8 0.0
20/05:44am -6.3 -10.3 -7.2 93 0.0 WNW 6 7 3 4 1022.3 - 0.0
20/05:43am -6.3 -10.3 -7.2 93 0.0 WNW 6 7 3 4 1022.3 - 0.0
20/05:30am -5.1 -9.0 -6.1 93 0.1 WNW 6 7 3 4 1022.2 - 0.0
20/05:26am -5.5 -9.4 -6.6 92 0.1 WNW 6 6 3 3 1022.3 - 0.0
20/05:25am -5.5 -9.4 -6.6 92 0.1 WNW 6 6 3 3 1022.3 - 0.0
20/05:04am -4.1 -7.5 -5.2 92 0.2 SW 4 9 2 5 1022.3 - 0.0
20/05:03am -4.1 -7.5 -5.2 92 0.2 SW 4 9 2 5 1022.3 - 0.0
20/05:00am -3.9 -7.6 -5.0 92 0.2 SW 6 11 3 6 1022.4 - 0.0
20/04:52am -3.7 -7.4 -4.7 93 0.2 SW 6 9 3 5 1022.4 - 0.0
20/04:51am -3.7 -7.4 -4.7 93 0.2 SW 6 9 3 5 1022.4 - 0.0
20/04:30am -3.1 -6.9 -3.9 94 0.1 SW 7 13 4 7 1022.3 - 0.0
20/04:24am -3.1 -7.3 -3.8 95 0.1 SW 9 13 5 7 1022.4 - 0.0
20/04:23am -3.1 -7.3 -3.8 95 0.1 SW 9 13 5 7 1022.4 - 0.0
20/04:08am -3.2 -7.0 -3.7 96 0.0 WSW 7 9 4 5 1022.7 - 0.0
20/04:07am -3.2 -7.0 -3.7 96 0.0 WSW 7 9 4 5 1022.7 - 0.0
20/04:00am -3.2 -7.0 -3.7 96 0.0 SW 7 11 4 6 1022.5 - 0.0
20/03:53am -3.4 -7.0 -3.9 96 0.0 WSW 6 11 3 6 1022.4 - 0.0
20/03:52am -3.4 -7.0 -3.9 96 0.0 WSW 6 11 3 6 1022.4 - 0.0
20/03:30am -4.0 -7.0 -4.8 94 0.1 WSW 2 4 1 2 1022.2 - 0.0
20/03:29am -4.0 -7.0 -4.8 94 0.1 WSW 2 4 1 2 1022.2 - 0.0
20/03:00am -3.5 -6.4 -4.5 93 0.2 NW 2 6 1 3 1022.4 1025.9 0.0
20/02:30am -3.3 -7.6 -4.4 92 0.2 SSW 9 13 5 7 1022.9 - 0.0
20/02:24am -2.9 -6.7 -3.9 93 0.2 SSW 7 15 4 8 1022.9 - 0.0
20/02:23am -2.9 -6.7 -3.9 93 0.2 SSW 7 15 4 8 1022.9 - 0.0
20/02:00am -2.5 -6.2 -3.3 94 0.2 SSW 7 15 4 8 1023.1 - 0.0
20/01:30am -2.6 -7.2 -3.9 91 0.3 SSW 11 17 6 9 1023.0 - 0.0
20/01:27am -2.7 -7.3 -4.0 91 0.3 SSW 11 17 6 9 1023.0 - 0.0
20/01:26am -2.7 -7.3 -4.0 91 0.3 SSW 11 17 6 9 1023.0 - 0.0
20/01:10am -2.6 -7.2 -3.9 91 0.3 SSW 11 15 6 8 1022.7 - 0.0
20/01:09am -2.6 -7.2 -3.9 91 0.3 SSW 11 15 6 8 1022.7 - 0.0
20/01:00am -2.4 -7.3 -3.5 92 0.3 SSW 13 20 7 11 1022.7 - 0.0
20/12:51am -2.7 -7.6 -3.7 93 0.2 SSW 13 20 7 11 1022.7 - 0.0
20/12:50am -2.7 -7.6 -3.7 93 0.2 SSW 13 20 7 11 1022.7 - 0.0
20/12:43am -2.5 -7.0 -3.5 93 0.2 SSW 11 20 6 11 1022.7 - 0.0
20/12:42am -2.5 -7.0 -3.5 93 0.2 SSW 11 20 6 11 1022.7 - 0.0
20/12:30am -2.5 -6.7 -3.5 93 0.2 SSW 9 17 5 9 1022.8 - 0.0
20/12:23am -2.5 -6.7 -3.5 93 0.2 SSW 9 15 5 8 1022.9 - 0.0
20/12:03am -2.5 -6.7 -3.8 91 0.3 S 9 13 5 7 1023.0 - 0.0
20/12:02am -2.5 -6.7 -3.8 91 0.3 S 9 13 5 7 1023.0 - 0.0
20/12:00am -2.5 -6.3 -3.9 90 0.4 S 7 13 4 7 1023.0 1026.5 0.0
 
Date/Time
EST
Temp
°C
App
Temp
°C
Dew
Point
°C
Rel
Hum
%
Delta-T
°C
Wind Press
QNH
hPa
Press
MSL
hPa
Rain since
9am
mm
Dir  Spd
km/h
Gust
km/h
Spd
kts
Gust
kts
19/11:45pm -2.4 -6.6 -3.8 90 0.4 SSW 9 13 5 7 1023.0 - 0.0
19/11:44pm -2.4 -6.6 -3.8 90 0.4 SSW 9 13 5 7 1023.0 - 0.0
19/11:32pm -2.4 -7.0 -4.0 89 0.4 SSW 11 17 6 9 1023.1 - 0.0
19/11:31pm -2.4 -7.0 -4.0 89 0.4 SSW 11 17 6 9 1023.1 - 0.0
19/11:30pm -2.4 -7.0 -4.1 88 0.5 SSW 11 17 6 9 1023.1 - 0.0
19/11:00pm -2.2 -6.4 -4.2 86 0.6 S 9 19 5 10 1022.9 - 0.0
19/10:58pm -2.1 -6.3 -4.1 86 0.6 S 9 19 5 10 1022.9 - 0.0
19/10:57pm -2.1 -6.3 -4.1 86 0.6 S 9 19 5 10 1022.9 - 0.0
19/10:47pm -2.2 -6.8 -4.4 85 0.7 S 11 20 6 11 1022.9 - 0.0
19/10:46pm -2.2 -6.8 -4.4 85 0.7 S 11 20 6 11 1022.9 - 0.0
19/10:30pm -2.2 -7.2 -4.4 85 0.7 S 13 20 7 11 1023.0 - 0.0
19/10:26pm -2.3 -6.9 -4.2 87 0.6 S 11 19 6 10 1023.0 - 0.0
19/10:25pm -2.3 -6.9 -4.2 87 0.6 S 11 19 6 10 1023.0 - 0.0
19/10:04pm -2.4 -7.1 -4.6 85 0.6 S 11 17 6 9 1023.1 - 0.0
19/10:03pm -2.4 -7.1 -4.6 85 0.6 S 11 17 6 9 1023.1 - 0.0
19/10:00pm -2.3 -6.6 -4.8 83 0.7 S 9 13 5 7 1023.1 - 0.0
19/09:30pm -2.0 -8.2 -5.3 78 1.0 S 19 28 10 15 1023.0 - 0.0
19/09:00pm -1.8 -6.4 -4.0 85 0.7 S 11 20 6 11 1023.1 1026.6 0.0
19/08:30pm -1.9 -6.5 -4.1 85 0.7 S 11 17 6 9 1023.0 - 0.0
19/08:00pm -1.8 -6.8 -4.3 83 0.8 S 13 19 7 10 1022.9 - 0.0
19/07:30pm -1.8 -6.0 -4.3 83 0.8 S 9 15 5 8 1023.0 - 0.0
19/07:00pm -1.7 -6.0 -4.7 80 1.0 S 9 15 5 8 1022.9 - 0.0
19/06:30pm -1.8 -5.7 -4.8 80 0.9 SSW 7 11 4 6 1022.9 - 0.0
19/06:00pm -1.3 -5.6 -4.6 78 1.1 SSW 9 17 5 9 1022.5 1026.0 0.0
19/05:40pm -1.3 -6.0 -5.0 76 1.2 S 11 17 6 9 1022.4 - 0.0
19/05:39pm -1.3 -6.0 -5.0 76 1.2 S 11 17 6 9 1022.4 - 0.0
19/05:30pm -1.1 -6.2 -5.0 75 1.3 SSW 13 20 7 11 1022.3 - 0.0
19/05:24pm -0.9 -6.0 -4.9 74 1.3 S 13 19 7 10 1022.2 - 0.0
19/05:23pm -0.9 -6.0 -4.9 74 1.3 S 13 19 7 10 1022.2 - 0.0
19/05:00pm -0.7 -5.4 -4.9 73 1.4 S 11 19 6 10 1022.0 - 0.0
19/04:30pm 0.0 -5.1 -5.4 67 1.9 S 13 20 7 11 1021.8 - 0.0
19/04:00pm 0.7 -4.0 -4.9 66 2.0 S 11 19 6 10 1021.4 - 0.0
19/03:30pm 0.8 -4.7 -5.6 62 2.3 S 15 26 8 14 1021.4 - 0.0

Other Formats:

Comma delimited format used in spreadsheet applications
http://www.bom.gov.au/fwo/IDV60801/IDV60801.94905.axf

JavaScript Object Notation format (JSON) in row-major order
http://www.bom.gov.au/fwo/IDV60801/IDV60801.94905.json